Latest Weather Observations for Legendre Island

IDW60801

Issued at 5:53 pm WST Monday 17 December 2018 (issued every 10 minutes, with the page automatically refreshed every 10 minutes)

About weather observations | Map of weather stations | Latest weather observations for WA | Other Formats
Station Details ID: 004095 Name: LEGENDRE ISLAND Lat: -20.36 Lon: 116.84 Height: 29.0 m
Data from the previous 72 hours. | See also: Recent months at Legendre Island
Date/Time
WST
Temp
°C
App
Temp
°C
Dew
Point
°C
Rel
Hum
%
Delta-T
°C
Wind Press
QNH
hPa
Press
MSL
hPa
Rain since
9am
mm
Dir  Spd
km/h
Gust
km/h
Spd
kts
Gust
kts
17/05:30pm 25.9 21.1 18.3 63 4.8 W 41 46 22 25 1005.8 1005.6 -
17/05:00pm 26.6 23.1 18.7 62 5.1 W 35 43 19 23 1005.8 1005.6 -
17/04:30pm 27.3 23.7 18.6 59 5.6 W 35 41 19 22 1005.7 1005.5 -
17/04:00pm 27.6 23.9 19.1 59 5.5 W 37 46 20 25 1005.8 1005.6 -
17/03:30pm 27.7 24.8 19.2 60 5.5 W 33 39 18 21 1005.8 1005.6 -
17/03:00pm 27.3 24.5 19.1 61 5.3 W 32 37 17 20 1006.2 1006.0 -
17/02:30pm 27.7 24.5 19.5 61 5.3 W 35 41 19 22 1006.6 1006.4 -
17/02:00pm 27.1 23.4 18.4 59 5.6 WSW 35 44 19 24 1007.0 1006.8 -
17/01:30pm 27.0 22.8 18.0 58 5.7 W 37 43 20 23 1007.4 1007.2 -
17/01:00pm 27.4 23.2 18.1 57 5.9 W 37 43 20 23 1007.9 1007.7 -
17/12:30pm 26.9 22.0 17.4 56 6.0 WSW 39 44 21 24 1007.9 1007.7 -
17/12:00pm 26.4 22.5 16.9 56 5.9 WSW 33 39 18 21 1008.6 1008.4 -
17/11:30am 27.6 23.2 15.6 48 7.3 WSW 33 39 18 21 1008.9 1008.7 -
17/11:00am 26.8 22.3 15.5 50 6.9 WSW 33 39 18 21 1009.3 1009.1 -
17/10:30am 26.3 21.8 15.0 49 6.8 SW 32 39 17 21 1009.5 1009.3 -
17/10:00am 25.9 20.9 15.0 51 6.6 SW 35 41 19 22 1009.7 1009.5 -
17/09:30am 25.0 20.4 15.0 53 6.0 SW 33 37 18 20 1010.1 1009.9 -
17/09:00am 24.5 20.0 15.4 57 5.5 SW 33 39 18 21 1010.0 1009.8 -
17/08:30am 24.1 19.6 15.3 58 5.3 SW 33 39 18 21 1010.1 1009.9 -
17/08:00am 23.3 18.4 15.4 61 4.7 SW 35 43 19 23 1009.9 1009.7 -
17/07:30am 22.3 17.2 14.9 63 4.4 SW 35 43 19 23 1009.7 1009.5 -
17/07:00am 21.7 15.8 14.6 64 4.2 SW 39 48 21 26 1009.4 1009.2 -
17/06:30am 21.4 15.3 14.1 63 4.3 SW 39 48 21 26 1008.9 1008.7 -
17/06:00am 21.1 14.8 13.5 62 4.4 SW 39 48 21 26 1008.8 1008.6 -
17/05:30am 20.9 14.6 13.6 63 4.2 SW 39 46 21 25 1008.3 1008.1 -
17/05:00am 21.1 14.5 13.8 63 4.2 SW 41 48 22 26 1007.8 1007.6 -
17/04:30am 21.3 14.5 13.2 60 4.6 SW 41 52 22 28 1007.5 1007.3 -
17/04:00am 21.6 14.4 13.2 59 4.8 SW 43 50 23 27 1007.3 1007.1 -
17/03:30am 21.8 14.5 12.9 57 5.1 SW 43 50 23 27 1007.3 1007.1 -
17/03:00am 22.0 15.0 12.5 54 5.4 SW 41 50 22 27 1007.0 1006.8 -
17/02:30am 22.3 14.7 12.5 53 5.6 SW 44 54 24 29 1006.9 1006.7 -
17/02:00am 22.5 14.4 12.2 52 5.8 SW 46 56 25 30 1006.6 1006.4 -
17/01:30am 22.6 14.7 12.8 54 5.6 SW 46 57 25 31 1006.7 1006.5 -
17/01:00am 22.9 14.8 13.1 54 5.7 SW 48 59 26 32 1007.0 1006.8 -
17/12:30am 23.5 14.8 12.5 50 6.3 SW 50 59 27 32 1006.9 1006.7 -
17/12:00am 23.7 15.3 14.7 57 5.4 SW 52 63 28 34 1007.4 1007.2 -
 
Date/Time
WST
Temp
°C
App
Temp
°C
Dew
Point
°C
Rel
Hum
%
Delta-T
°C
Wind Press
QNH
hPa
Press
MSL
hPa
Rain since
9am
mm
Dir  Spd
km/h
Gust
km/h
Spd
kts
Gust
kts
16/11:30pm 23.8 16.3 16.1 62 4.7 WSW 50 61 27 33 1007.4 1007.2 -
16/11:00pm 23.8 15.9 16.8 65 4.3 WSW 54 63 29 34 1007.0 1006.8 -
16/10:30pm 23.9 15.7 17.6 68 3.9 WSW 57 70 31 38 1007.2 1007.0 -
16/10:00pm 24.3 15.5 17.1 64 4.5 WSW 59 69 32 37 1007.1 1006.9 -
16/09:30pm 24.4 16.3 17.4 65 4.4 WSW 56 67 30 36 1007.0 1006.8 -
16/09:00pm 24.3 16.6 18.7 71 3.6 WSW 57 69 31 37 1006.7 1006.5 -
16/08:30pm 24.4 17.4 19.0 72 3.4 WSW 54 67 29 36 1006.8 1006.6 -
16/08:00pm 24.4 18.4 19.5 74 3.2 WSW 50 63 27 34 1006.2 1006.0 -
16/07:30pm 24.6 18.1 19.2 72 3.5 WSW 52 65 28 35 1006.0 1005.8 -
16/07:00pm 24.9 17.7 18.6 68 4.0 W 54 63 29 34 1005.9 1005.7 -
16/06:30pm 25.3 18.7 18.2 64 4.5 W 50 61 27 33 1005.5 1005.3 -
16/06:00pm 25.4 20.4 20.0 72 3.5 W 46 56 25 30 1005.3 1005.1 -
16/05:30pm 25.9 21.4 20.0 70 3.8 W 43 50 23 27 1005.3 1005.1 -
16/05:00pm 26.8 20.8 17.8 57 5.7 W 46 57 25 31 1004.9 1004.7 -
16/04:30pm 26.8 20.7 17.6 57 5.8 W 46 57 25 31 1004.8 1004.6 -
16/04:00pm 27.0 20.5 17.5 56 6.0 W 48 56 26 30 1005.0 1004.8 -
16/03:30pm 27.3 21.8 18.0 56 5.9 W 44 54 24 29 1005.4 1005.2 -
16/03:00pm 27.4 21.3 17.6 55 6.2 W 46 56 25 30 1005.5 1005.3 -
16/02:30pm 27.0 21.2 18.3 59 5.5 W 46 56 25 30 1005.6 1005.4 -
16/02:00pm 27.2 20.4 16.8 53 6.5 W 48 56 26 30 1005.9 1005.7 -
16/01:30pm 27.1 20.6 16.7 53 6.5 W 46 56 25 30 1006.2 1006.0 -
16/01:00pm 26.8 20.8 17.0 55 6.1 W 44 52 24 28 1006.7 1006.5 -
16/12:30pm 26.9 21.2 17.1 55 6.1 W 43 50 23 27 1007.0 1006.8 -
16/12:00pm 26.5 20.7 16.1 52 6.4 W 41 50 22 27 1007.1 1006.9 -
16/11:30am 26.4 21.3 16.9 56 5.9 W 39 46 21 25 1007.6 1007.4 -
16/11:00am 25.9 20.2 15.3 52 6.4 WSW 39 46 21 25 1007.9 1007.7 -
16/10:30am 26.0 20.4 15.4 52 6.4 WSW 39 48 21 26 1007.9 1007.7 -
16/10:00am 24.8 19.0 16.0 58 5.4 WSW 41 52 22 28 1008.3 1008.1 -
16/09:30am 24.6 18.5 16.6 61 4.9 WSW 44 54 24 29 1008.0 1007.8 -
16/09:00am 24.1 16.8 16.6 63 4.6 WSW 50 61 27 33 1008.2 1008.0 -
16/08:30am 23.7 17.4 17.2 67 4.0 WSW 46 57 25 31 1008.2 1008.0 -
16/08:00am 23.4 17.9 18.1 72 3.3 WSW 44 54 24 29 1008.2 1008.0 -
16/07:30am 22.6 16.2 17.9 75 2.9 WSW 48 56 26 30 1007.9 1007.7 -
16/07:00am 22.5 16.6 18.1 76 2.8 SW 46 57 25 31 1007.8 1007.6 -
16/06:30am 22.1 16.0 18.5 80 2.3 WSW 48 56 26 30 1007.1 1006.9 -
16/06:00am 22.4 17.3 19.9 86 1.6 SW 46 56 25 30 1007.0 1006.8 -
16/05:30am 22.6 17.5 19.9 85 1.7 SW 46 56 25 30 1006.4 1006.2 -
16/05:00am 22.6 17.5 19.9 85 1.7 WSW 46 54 25 29 1006.2 1006.0 -
16/04:30am 22.9 17.5 20.1 84 1.8 WSW 48 57 26 31 1005.4 1005.2 -
16/04:00am 23.1 18.5 20.8 87 1.5 WSW 46 59 25 32 1005.2 1005.0 -
16/03:30am 23.3 18.6 20.6 85 1.8 WSW 46 56 25 30 1004.9 1004.7 -
16/03:00am 23.4 18.7 20.7 85 1.8 WSW 46 56 25 30 1004.9 1004.7 -
16/02:30am 23.5 19.0 21.0 86 1.6 WSW 46 54 25 29 1004.6 1004.4 -
16/02:00am 23.7 19.9 21.6 88 1.4 WSW 44 57 24 31 1004.7 1004.5 -
16/01:30am 23.6 20.2 22.4 93 0.8 WSW 44 54 24 29 1004.6 1004.4 -
16/01:00am 24.0 20.6 22.4 91 1.1 WSW 44 56 24 30 1004.6 1004.4 -
16/12:30am 24.2 19.9 22.1 88 1.4 WSW 48 59 26 32 1004.7 1004.5 -
16/12:00am 24.4 20.2 22.3 88 1.4 WSW 48 56 26 30 1004.8 1004.6 -
 
Date/Time
WST
Temp
°C
App
Temp
°C
Dew
Point
°C
Rel
Hum
%
Delta-T
°C
Wind Press
QNH
hPa
Press
MSL
hPa
Rain since
9am
mm
Dir  Spd
km/h
Gust
km/h
Spd
kts
Gust
kts
15/11:30pm 24.3 20.9 22.4 89 1.3 WSW 44 54 24 29 1005.1 1004.9 -
15/11:00pm 24.5 21.0 22.2 87 1.5 WSW 44 54 24 29 1005.1 1004.9 -
15/10:30pm 24.6 20.5 21.9 85 1.8 WSW 46 54 25 29 1005.0 1004.8 -
15/10:00pm 24.7 20.4 21.4 82 2.2 WSW 46 56 25 30 1004.7 1004.5 -
15/09:30pm 24.9 20.7 21.6 82 2.2 WSW 46 56 25 30 1004.6 1004.4 -
15/09:00pm 24.9 20.1 21.2 80 2.4 WSW 48 54 26 29 1004.3 1004.1 -
15/08:30pm 25.1 20.5 20.8 77 2.8 WSW 46 56 25 30 1004.1 1003.9 -
15/08:00pm 25.3 20.7 20.8 76 3.0 WSW 46 54 25 29 1003.5 1003.3 -
15/07:30pm 25.3 20.7 20.8 76 3.0 W 46 57 25 31 1003.2 1003.0 -
15/07:00pm 25.3 21.2 20.8 76 3.0 W 43 56 23 30 1003.1 1002.9 -
15/06:30pm 25.7 21.3 20.5 73 3.4 W 44 52 24 28 1003.2 1003.0 -
15/06:00pm 25.9 20.9 20.9 74 3.3 W 48 56 26 30 1002.8 1002.6 -
15/05:30pm 26.9 22.1 21.2 71 3.8 W 48 56 26 30 1002.6 1002.4 -
15/05:00pm 27.2 23.0 21.0 69 4.1 W 44 54 24 29 1002.6 1002.4 -
15/04:30pm 27.4 23.4 21.2 69 4.1 W 44 50 24 27 1002.4 1002.2 -
15/04:00pm 27.9 23.9 21.2 67 4.5 W 44 52 24 28 1002.4 1002.2 -
15/03:30pm 27.9 24.0 21.4 67 4.3 W 44 54 24 29 1002.5 1002.3 -
15/03:00pm 28.0 24.0 21.3 67 4.5 W 44 52 24 28 1003.0 1002.8 -
15/02:30pm 27.6 23.8 21.4 69 4.1 W 43 50 23 27 1003.3 1003.1 -
15/02:00pm 28.2 24.3 21.2 65 4.7 W 43 48 23 26 1003.5 1003.3 -
15/01:30pm 28.1 24.0 21.1 65 4.7 W 44 52 24 28 1003.8 1003.6 -
15/01:00pm 27.8 23.6 20.6 65 4.8 W 43 48 23 26 1004.0 1003.8 -
15/12:30pm 27.6 23.3 20.4 65 4.7 W 43 50 23 27 1004.4 1004.2 -
15/12:00pm 27.6 23.9 20.7 66 4.6 W 41 46 22 25 1004.7 1004.5 -
15/11:30am 26.9 22.8 20.7 69 4.1 W 43 48 23 26 1005.0 1004.8 -
15/11:00am 26.8 23.4 20.6 69 4.1 WSW 39 44 21 24 1005.6 1005.4 -
15/10:30am 26.5 23.1 20.6 70 3.9 WSW 39 46 21 25 1006.0 1005.8 -
15/10:00am 26.4 23.4 20.7 71 3.8 WSW 37 44 20 24 1006.1 1005.9 -
15/09:30am 26.0 22.8 20.3 71 3.7 WSW 37 43 20 23 1006.4 1006.2 -
15/09:00am 25.6 22.6 20.6 74 3.3 WSW 37 44 20 24 1006.5 1006.3 -
15/08:30am 25.3 22.1 20.3 74 3.3 WSW 37 43 20 23 1006.7 1006.5 -
15/08:00am 25.4 22.9 20.9 76 3.0 WSW 35 41 19 22 1006.6 1006.4 -
15/07:30am 24.9 21.4 20.4 76 2.9 SW 39 44 21 24 1006.1 1005.9 -
15/07:00am 24.8 21.6 21.1 80 2.4 WSW 39 46 21 25 1005.9 1005.7 -
15/06:30am 24.6 22.0 22.1 86 1.7 SW 39 44 21 24 1005.7 1005.5 -
15/06:00am 24.5 21.8 22.6 89 1.3 WSW 41 46 22 25 1005.3 1005.1 -
15/05:30am 24.3 21.8 23.1 93 0.8 WSW 41 48 22 26 1005.0 1004.8 -
15/05:00am 24.4 22.8 23.9 97 0.3 WSW 39 48 21 26 1004.7 1004.5 -
15/04:30am 24.5 22.7 24.2 98 0.2 WSW 41 48 22 26 1004.4 1004.2 -
15/04:00am 24.5 23.1 24.2 98 0.2 WSW 39 44 21 24 1004.1 1003.9 -
15/03:30am 24.4 23.0 24.2 99 0.1 WSW 39 46 21 25 1003.8 1003.6 -
15/03:00am 24.6 23.2 24.3 98 0.2 WSW 39 46 21 25 1003.8 1003.6 -
15/02:30am 24.5 22.6 24.0 97 0.3 WSW 41 50 22 27 1003.5 1003.3 -
15/02:00am 24.8 22.4 23.9 95 0.6 WSW 43 48 23 26 1004.0 1003.8 -
15/01:30am 24.8 22.2 23.6 93 0.8 WSW 43 48 23 26 1004.0 1003.8 -
15/01:00am 24.8 23.2 23.2 91 1.1 WSW 37 44 20 24 1004.2 1004.0 -
15/12:30am 25.0 22.9 23.1 89 1.3 WSW 39 46 21 25 1004.7 1004.5 -
15/12:00am 25.0 22.7 22.7 87 1.6 WSW 39 48 21 26 1004.8 1004.6 -
 
Date/Time
WST
Temp
°C
App
Temp
°C
Dew
Point
°C
Rel
Hum
%
Delta-T
°C
Wind Press
QNH
hPa
Press
MSL
hPa
Rain since
9am
mm
Dir  Spd
km/h
Gust
km/h
Spd
kts
Gust
kts
14/11:30pm 25.2 22.9 23.3 89 1.3 WSW 41 50 22 27 1005.3 1005.1 -
14/11:00pm 25.3 24.2 23.5 90 1.2 WSW 35 43 19 23 1005.9 1005.7 -
14/10:30pm 25.5 24.8 23.6 89 1.3 WSW 33 39 18 21 1005.9 1005.7 -
14/10:00pm 25.6 24.5 23.5 88 1.4 WSW 35 44 19 24 1005.9 1005.7 -
14/09:30pm 25.6 23.5 23.8 90 1.2 WSW 41 50 22 27 1005.4 1005.2 -
14/09:00pm 25.9 23.9 23.9 89 1.4 W 41 48 22 26 1005.2 1005.0 -
14/08:30pm 26.1 23.4 23.4 85 1.8 W 43 50 23 27 1004.9 1004.7 -
14/08:00pm 26.4 23.1 22.7 80 2.5 W 44 54 24 29 1004.5 1004.3 -
14/07:30pm 26.7 23.4 22.3 77 3.0 W 43 54 23 29 1004.3 1004.1 -
14/07:00pm 26.8 24.2 22.2 76 3.1 W 39 48 21 26 1004.3 1004.1 -
14/06:30pm 27.2 24.7 21.7 72 3.7 W 37 46 20 25 1004.2 1004.0 -
14/06:00pm 27.9 24.3 21.0 66 4.6 W 41 50 22 27 1003.8 1003.6 -

Other Formats:

Comma delimited format used in spreadsheet applications
http://www.bom.gov.au/fwo/IDW60801/IDW60801.94307.axf

JavaScript Object Notation format (JSON) in row-major order
http://www.bom.gov.au/fwo/IDW60801/IDW60801.94307.json